ブラジリア の空港の天気 - METARとTAF

ブラジリア国際空港 ( SBBR / BSB ) - ブラジル ブラジリア
飛行場実況気象(Metar)
観測時間11/27 04:00 BRT (11/27 07:00 UTC)
風向・風速西北西 1m/s
視程10km以上
天気現象
なし
気温20℃
湿度88%
気圧1015hPa
METARSBBR 270700Z 29002KT CAVOK 20/18 Q1015
過去の天気等 Google飛行場航空写真 Wunderground天気予報

過去48時間のMETAR

飛行場予報(TAF)
発表時間: 11/26 20:00 BRT (11/26 23:00 UTC)
予報対象時間: 27日3時 BRT ~ 28日3時 BRT
風向・風速北北西 3m/s
視程10km以上
全天の8割程度の雲 雲底高度 430m
27日8時 BRT ~ 27日10時 BRT に徐々に
風向・風速不定 3m/s
少しの雲 雲底高度 760m
27日12時 BRT ~ 27日14時 BRT に徐々に
風向・風速北西 3m/s
天気現象周辺でしゅう雨
全天の4割程度の雲 雲底高度 1220m
少しの塔状積雲 雲底高度 1370m
27日15時 BRT ~ 27日21時 BRT に一時的に
風向・風速北 5m/s
天気現象
全天の4割程度の雲 雲底高度 1070m
少しの積乱雲 雲底高度 1220m
28日0時 BRT ~ 28日2時 BRT に徐々に
天気現象運行に影響にある天気現象が終了
TAF SBBR 262300Z 2706/2806 33005KT 9999 BKN014 TN19/2706Z TX27/2718Z
BECMG 2711/2713 VRB05KT FEW025
BECMG 2715/2717 31005KT VCSH SCT040 FEW045TCU
TEMPO 2718/2724 01010KT TS SCT035 FEW040CB
BECMG 2803/2805 NSW RMK PGE